Shimanami Star — C6VN9 — position and weather

sailwx.info

Track history (hours):
 
Tides and Currents Weather Stations Pressure Air Temp Water Temp Dewpoint Dewpoint Depression Visibility Wind Speed Wind Dir Waves Ship Positions

Shimanami Star

Last reported at 2016-Apr-15 16:17 UTC. Time now 2016-May-01 11:45 UTC.
Position N 35°21' E 119°32'.
Warning: this ship's position is 15 days out of date.

Length 170 m; draft 5.8 m.

Type: Ship. MMSI: 309116000.

Date/timePositionNaut miles runAvg speedWind from/ knotsBaromVisibWave heightAir tempDewpointWater temp
2016-Apr-15 16:17N 35°21' E 119°32'0 0.0
2016-Apr-15 15:23N 35°21' E 119°32'0 0.0
2016-Apr-15 13:23N 35°21' E 119°32'0 0.0
2016-Apr-15 12:29N 35°21' E 119°32'0 0.0
2016-Apr-15 11:17N 35°21' E 119°32'0 0.0
2016-Apr-15 08:29N 35°21' E 119°32'0 0.0
2016-Apr-14 22:17N 35°21' E 119°32'0 0.0
2016-Apr-14 16:23N 35°21' E 119°32'0 0.0
2016-Apr-14 07:07N 35°21' E 119°32'4 5.7
2016-Apr-14 06:27N 35°20' E 119°36'6 1.9
2016-Apr-14 03:23N 35°15' E 119°40'0 0.0
2016-Apr-12 12:17N 35°15' E 119°41'7 6.3
2016-Apr-12 11:11N 35°15' E 119°49'29311.0
2016-Apr-11 08:33N 31°18' E 123°17'3013.8
2016-Apr-11 06:23N 30°48' E 123°21'8514.0
2016-Apr-11 00:18N 29°28' E 122°49'  
2016-Apr-07 18:28N 21°01' E 110°54'1213.5
2016-Apr-07 17:33N 21°03' E 110°41'1212.2
2016-Apr-07 16:33N 21°05' E 110°28'7 6.8
2016-Apr-07 15:33N 21°10' E 110°24'0 0.0
2016-Apr-07 14:31N 21°10' E 110°24'0 0.0
2016-Apr-07 13:25N 21°10' E 110°24'0 0.0
2016-Apr-07 12:28N 21°10' E 110°24'0 0.0
2016-Apr-07 11:25N 21°10' E 110°24'0 0.0
2016-Apr-07 10:31N 21°10' E 110°24'0 0.0
2016-Apr-07 08:31N 21°10' E 110°24'0 0.0
2016-Apr-07 07:25N 21°10' E 110°24'0 0.0
2016-Apr-07 06:31N 21°10' E 110°24'0 0.0
2016-Apr-07 05:25N 21°10' E 110°24'0 0.0
2016-Apr-07 04:28N 21°10' E 110°24'0 0.0
2016-Apr-07 03:19N 21°10' E 110°24'0 0.0
2016-Apr-07 02:31N 21°10' E 110°24'0 0.0
2016-Apr-07 01:31N 21°10' E 110°24'0 0.0
2016-Apr-07 00:10N 21°10' E 110°24'0 0.0
2016-Apr-06 23:31N 21°10' E 110°24'0 0.0
2016-Apr-06 22:31N 21°10' E 110°24'0 0.0
2016-Apr-06 21:25N 21°10' E 110°24'0 0.0
2016-Apr-06 20:31N 21°10' E 110°24'0 0.0
2016-Apr-06 19:28N 21°10' E 110°24'0 0.0
2016-Apr-06 18:31N 21°10' E 110°24'0 0.0
2016-Apr-06 17:28N 21°10' E 110°24'0 0.0
2016-Apr-06 16:25N 21°10' E 110°24'0 0.0
2016-Apr-06 15:31N 21°10' E 110°24'0 0.0
2016-Apr-06 14:31N 21°10' E 110°24'0 0.0
2016-Apr-06 13:31N 21°10' E 110°24'0 0.0
2016-Apr-06 12:31N 21°10' E 110°24'0 0.0
2016-Apr-06 11:22N 21°10' E 110°24'0 0.0
2016-Apr-06 10:31N 21°10' E 110°24'0 0.0
2016-Apr-06 09:28N 21°10' E 110°24'0 0.0
2016-Apr-06 08:25N 21°10' E 110°24'0 0.0
2016-Apr-06 07:28N 21°10' E 110°24'0 0.0
2016-Apr-06 06:31N 21°10' E 110°24'0 0.0
2016-Apr-06 05:25N 21°10' E 110°24'0 0.0
2016-Apr-06 04:19N 21°10' E 110°24'0 0.0
2016-Apr-06 03:31N 21°10' E 110°24'0 0.0
2016-Apr-06 02:28N 21°10' E 110°24'0 0.0
2016-Apr-06 01:25N 21°10' E 110°24'0 0.0
2016-Apr-06 00:25N 21°10' E 110°24'0 0.0
2016-Apr-05 23:31N 21°10' E 110°24'0 0.0
2016-Apr-05 22:31N 21°10' E 110°24'0 0.0
2016-Apr-05 21:31N 21°10' E 110°24'0 0.0
2016-Apr-05 20:28N 21°10' E 110°24'0 0.0
2016-Apr-05 19:31N 21°10' E 110°24'0 0.0
2016-Apr-05 18:28N 21°10' E 110°24'0 0.0
2016-Apr-05 17:25N 21°10' E 110°24'  
Track history (hours):
 
Tides and Currents Weather Stations Pressure Air Temp Water Temp Dewpoint Dewpoint Depression Visibility Wind Speed Wind Dir Waves Ship Positions

Shimanami Star

Last reported at 2016-Apr-15 16:17 UTC. Time now 2016-May-01 11:45 UTC.
Position N 35°21' E 119°32'.
Warning: this ship's position is 15 days out of date.

Length 170 m; draft 5.8 m.

Type: Ship. MMSI: 309116000.

Date/timePositionNaut miles runAvg speedWind from/ knotsBaromVisibWave heightAir tempDewpointWater temp
2016-Apr-15 16:17N 35°21' E 119°32'0 0.0
2016-Apr-15 15:23N 35°21' E 119°32'0 0.0
2016-Apr-15 13:23N 35°21' E 119°32'0 0.0
2016-Apr-15 12:29N 35°21' E 119°32'0 0.0
2016-Apr-15 11:17N 35°21' E 119°32'0 0.0
2016-Apr-15 08:29N 35°21' E 119°32'0 0.0
2016-Apr-14 22:17N 35°21' E 119°32'0 0.0
2016-Apr-14 16:23N 35°21' E 119°32'0 0.0
2016-Apr-14 07:07N 35°21' E 119°32'4 5.7
2016-Apr-14 06:27N 35°20' E 119°36'6 1.9
2016-Apr-14 03:23N 35°15' E 119°40'0 0.0
2016-Apr-12 12:17N 35°15' E 119°41'7 6.3
2016-Apr-12 11:11N 35°15' E 119°49'29311.0
2016-Apr-11 08:33N 31°18' E 123°17'3013.8
2016-Apr-11 06:23N 30°48' E 123°21'8514.0
2016-Apr-11 00:18N 29°28' E 122°49'  
2016-Apr-07 18:28N 21°01' E 110°54'1213.5
2016-Apr-07 17:33N 21°03' E 110°41'1212.2
2016-Apr-07 16:33N 21°05' E 110°28'7 6.8
2016-Apr-07 15:33N 21°10' E 110°24'0 0.0
2016-Apr-07 14:31N 21°10' E 110°24'0 0.0
2016-Apr-07 13:25N 21°10' E 110°24'0 0.0
2016-Apr-07 12:28N 21°10' E 110°24'0 0.0
2016-Apr-07 11:25N 21°10' E 110°24'0 0.0
2016-Apr-07 10:31N 21°10' E 110°24'0 0.0
2016-Apr-07 08:31N 21°10' E 110°24'0 0.0
2016-Apr-07 07:25N 21°10' E 110°24'0 0.0
2016-Apr-07 06:31N 21°10' E 110°24'0 0.0
2016-Apr-07 05:25N 21°10' E 110°24'0 0.0
2016-Apr-07 04:28N 21°10' E 110°24'0 0.0
2016-Apr-07 03:19N 21°10' E 110°24'0 0.0
2016-Apr-07 02:31N 21°10' E 110°24'0 0.0
2016-Apr-07 01:31N 21°10' E 110°24'0 0.0
2016-Apr-07 00:10N 21°10' E 110°24'0 0.0
2016-Apr-06 23:31N 21°10' E 110°24'0 0.0
2016-Apr-06 22:31N 21°10' E 110°24'0 0.0
2016-Apr-06 21:25N 21°10' E 110°24'0 0.0
2016-Apr-06 20:31N 21°10' E 110°24'0 0.0
2016-Apr-06 19:28N 21°10' E 110°24'0 0.0
2016-Apr-06 18:31N 21°10' E 110°24'0 0.0
2016-Apr-06 17:28N 21°10' E 110°24'0 0.0
2016-Apr-06 16:25N 21°10' E 110°24'0 0.0
2016-Apr-06 15:31N 21°10' E 110°24'0 0.0
2016-Apr-06 14:31N 21°10' E 110°24'0 0.0
2016-Apr-06 13:31N 21°10' E 110°24'0 0.0
2016-Apr-06 12:31N 21°10' E 110°24'0 0.0
2016-Apr-06 11:22N 21°10' E 110°24'0 0.0
2016-Apr-06 10:31N 21°10' E 110°24'0 0.0
2016-Apr-06 09:28N 21°10' E 110°24'0 0.0
2016-Apr-06 08:25N 21°10' E 110°24'0 0.0
2016-Apr-06 07:28N 21°10' E 110°24'0 0.0
2016-Apr-06 06:31N 21°10' E 110°24'0 0.0
2016-Apr-06 05:25N 21°10' E 110°24'0 0.0
2016-Apr-06 04:19N 21°10' E 110°24'0 0.0
2016-Apr-06 03:31N 21°10' E 110°24'0 0.0
2016-Apr-06 02:28N 21°10' E 110°24'0 0.0
2016-Apr-06 01:25N 21°10' E 110°24'0 0.0
2016-Apr-06 00:25N 21°10' E 110°24'0 0.0
2016-Apr-05 23:31N 21°10' E 110°24'0 0.0
2016-Apr-05 22:31N 21°10' E 110°24'0 0.0
2016-Apr-05 21:31N 21°10' E 110°24'0 0.0
2016-Apr-05 20:28N 21°10' E 110°24'0 0.0
2016-Apr-05 19:31N 21°10' E 110°24'0 0.0
2016-Apr-05 18:28N 21°10' E 110°24'0 0.0
2016-Apr-05 17:25N 21°10' E 110°24'  

Dump ship's entire track history